Benaguasil, Spain
Current Conditions -  °F | °C
As of 6:00 AM on Saturday 20 Dec 2014 (Local Time) from LEBT Reporting Station
Clear Clear  
Wind Chill: 43°   Ceiling: Unl
Heat Index: 43°   Visibility: 1mi
Dew Point: 43°   Wind: 3mph
Humidity: 100%   Direction: 350°N
Pressure: 30.42"   Gusts: NA
Location:  39.6°N, 0.58°W
Report Text: LEBT 200500Z AUTO 35003KT 290V020 1600 // NSC 06/06 Q1030
Loading
Personal Weather Stations






























Interactive Weather Map New forecast layout! Learn more

10-Day Weather Forecast

Advertisements
Track Severe Weather on mobile